Terminal Aerodrome Forecast
Issued by NWS Brownsville, TX

Home | Current Version | Previous Version | Text Only | Print | Product List | Glossary On
Versions: 1 2 3 4 5 6 7 8 9 10 11 12 13 14 15 16 17 18 19 20 21
848
FTUS44 KBRO 191209 AAA
TAFHRL
TAF AMD
KHRL 191209Z 1912/2012 33008KT P6SM VCSH BKN017 OVC110
     FM191800 32005KT P6SM SCT015 BKN030
     FM200000 VRB05KT P6SM SCT030 BKN050
     FM200600 17005KT 4SM BR BKN015=

USA.gov is the U.S. government's official web portal to all federal, state and local government web resources and services.